sensor_id;sensor_type;location;lat;lon;timestamp;temperature;humidity
14924;DHT22;7554;43.600;1.480;2022-09-20T00:01:56;16.60;1.00
14924;DHT22;7554;43.600;1.480;2022-09-20T00:04:23;16.60;1.00
14924;DHT22;7554;43.600;1.480;2022-09-20T00:06:51;16.60;1.00
14924;DHT22;7554;43.600;1.480;2022-09-20T00:09:18;16.50;1.00
14924;DHT22;7554;43.600;1.480;2022-09-20T00:11:47;16.40;1.00
14924;DHT22;7554;43.600;1.480;2022-09-20T00:14:14;16.30;1.00
14924;DHT22;7554;43.600;1.480;2022-09-20T00:16:41;16.20;1.00
14924;DHT22;7554;43.600;1.480;2022-09-20T00:19:16;16.20;1.00
14924;DHT22;7554;43.600;1.480;2022-09-20T00:21:43;16.10;1.00
14924;DHT22;7554;43.600;1.480;2022-09-20T00:24:11;16.10;1.00
14924;DHT22;7554;43.600;1.480;2022-09-20T00:26:38;16.10;1.00
14924;DHT22;7554;43.600;1.480;2022-09-20T00:29:07;16.00;1.00
14924;DHT22;7554;43.600;1.480;2022-09-20T00:31:37;16.00;1.00
14924;DHT22;7554;43.600;1.480;2022-09-20T00:34:08;16.00;1.00
14924;DHT22;7554;43.600;1.480;2022-09-20T00:36:53;15.90;1.00
14924;DHT22;7554;43.600;1.480;2022-09-20T00:39:20;15.80;1.00
14924;DHT22;7554;43.600;1.480;2022-09-20T00:41:47;15.90;1.00
14924;DHT22;7554;43.600;1.480;2022-09-20T00:44:46;15.80;1.00
14924;DHT22;7554;43.600;1.480;2022-09-20T00:47:23;15.80;1.00
14924;DHT22;7554;43.600;1.480;2022-09-20T00:49:55;15.80;1.00
14924;DHT22;7554;43.600;1.480;2022-09-20T00:52:25;15.70;1.00
14924;DHT22;7554;43.600;1.480;2022-09-20T00:54:53;15.70;1.00
14924;DHT22;7554;43.600;1.480;2022-09-20T00:57:21;15.60;1.00
14924;DHT22;7554;43.600;1.480;2022-09-20T00:59:51;15.60;1.00
14924;DHT22;7554;43.600;1.480;2022-09-20T01:02:23;15.50;1.00
14924;DHT22;7554;43.600;1.480;2022-09-20T01:04:52;15.50;1.00
14924;DHT22;7554;43.600;1.480;2022-09-20T01:07:22;15.50;1.00
14924;DHT22;7554;43.600;1.480;2022-09-20T01:09:51;15.50;1.00
14924;DHT22;7554;43.600;1.480;2022-09-20T01:12:20;15.40;1.00
14924;DHT22;7554;43.600;1.480;2022-09-20T01:14:51;15.30;1.00
14924;DHT22;7554;43.600;1.480;2022-09-20T01:17:21;15.40;1.00
14924;DHT22;7554;43.600;1.480;2022-09-20T01:20:09;15.40;1.00
14924;DHT22;7554;43.600;1.480;2022-09-20T01:22:46;15.40;1.00
14924;DHT22;7554;43.600;1.480;2022-09-20T01:25:17;15.40;1.00
14924;DHT22;7554;43.600;1.480;2022-09-20T01:27:49;15.30;1.00
14924;DHT22;7554;43.600;1.480;2022-09-20T01:30:19;15.20;1.00
14924;DHT22;7554;43.600;1.480;2022-09-20T01:33:04;15.20;1.00
14924;DHT22;7554;43.600;1.480;2022-09-20T01:35:34;15.10;1.00
14924;DHT22;7554;43.600;1.480;2022-09-20T01:38:14;15.10;1.00
14924;DHT22;7554;43.600;1.480;2022-09-20T01:40:53;15.10;1.00
14924;DHT22;7554;43.600;1.480;2022-09-20T01:43:27;15.10;1.00
14924;DHT22;7554;43.600;1.480;2022-09-20T01:45:58;15.00;1.00
14924;DHT22;7554;43.600;1.480;2022-09-20T01:48:34;15.00;1.00
14924;DHT22;7554;43.600;1.480;2022-09-20T01:51:46;14.90;1.00
14924;DHT22;7554;43.600;1.480;2022-09-20T01:54:41;14.90;1.00
14924;DHT22;7554;43.600;1.480;2022-09-20T02:00:16;14.70;1.00
14924;DHT22;7554;43.600;1.480;2022-09-20T02:03:07;14.70;1.00
14924;DHT22;7554;43.600;1.480;2022-09-20T02:06:02;14.70;1.00
14924;DHT22;7554;43.600;1.480;2022-09-20T02:09:02;14.70;1.00
14924;DHT22;7554;43.600;1.480;2022-09-20T02:11:44;14.60;1.00
14924;DHT22;7554;43.600;1.480;2022-09-20T02:14:30;14.60;1.00
14924;DHT22;7554;43.600;1.480;2022-09-20T02:17:12;14.50;1.00
14924;DHT22;7554;43.600;1.480;2022-09-20T02:20:11;14.60;1.00
14924;DHT22;7554;43.600;1.480;2022-09-20T02:22:52;14.50;1.00
14924;DHT22;7554;43.600;1.480;2022-09-20T02:25:44;14.50;1.00
14924;DHT22;7554;43.600;1.480;2022-09-20T02:28:22;14.50;1.00
14924;DHT22;7554;43.600;1.480;2022-09-20T02:30:57;14.40;1.00
14924;DHT22;7554;43.600;1.480;2022-09-20T02:36:46;14.40;1.00
14924;DHT22;7554;43.600;1.480;2022-09-20T02:39:21;14.30;1.00
14924;DHT22;7554;43.600;1.480;2022-09-20T02:41:58;14.30;1.00
14924;DHT22;7554;43.600;1.480;2022-09-20T02:44:37;14.30;1.00
14924;DHT22;7554;43.600;1.480;2022-09-20T02:47:12;14.30;1.00
14924;DHT22;7554;43.600;1.480;2022-09-20T02:49:53;14.30;1.00
14924;DHT22;7554;43.600;1.480;2022-09-20T02:52:31;14.20;1.00
14924;DHT22;7554;43.600;1.480;2022-09-20T02:55:04;14.20;1.00
14924;DHT22;7554;43.600;1.480;2022-09-20T02:57:43;14.10;1.00
14924;DHT22;7554;43.600;1.480;2022-09-20T03:00:18;14.10;1.00
14924;DHT22;7554;43.600;1.480;2022-09-20T03:02:54;14.10;1.00
14924;DHT22;7554;43.600;1.480;2022-09-20T03:05:31;14.10;1.00
14924;DHT22;7554;43.600;1.480;2022-09-20T03:08:10;14.10;1.00
14924;DHT22;7554;43.600;1.480;2022-09-20T03:10:47;14.10;1.00
14924;DHT22;7554;43.600;1.480;2022-09-20T03:13:21;14.10;1.00
14924;DHT22;7554;43.600;1.480;2022-09-20T03:16:02;14.00;1.00
14924;DHT22;7554;43.600;1.480;2022-09-20T03:18:40;14.00;1.00
14924;DHT22;7554;43.600;1.480;2022-09-20T03:21:26;14.10;1.00
14924;DHT22;7554;43.600;1.480;2022-09-20T03:24:05;14.10;1.00
14924;DHT22;7554;43.600;1.480;2022-09-20T03:26:46;14.00;1.00
14924;DHT22;7554;43.600;1.480;2022-09-20T03:29:28;14.00;1.00
14924;DHT22;7554;43.600;1.480;2022-09-20T03:32:10;14.00;1.00
14924;DHT22;7554;43.600;1.480;2022-09-20T03:34:51;14.00;1.00
14924;DHT22;7554;43.600;1.480;2022-09-20T03:37:38;14.00;1.00
14924;DHT22;7554;43.600;1.480;2022-09-20T03:40:47;14.00;1.00
14924;DHT22;7554;43.600;1.480;2022-09-20T03:43:28;13.90;1.00
14924;DHT22;7554;43.600;1.480;2022-09-20T03:46:14;13.90;1.00
14924;DHT22;7554;43.600;1.480;2022-09-20T03:52:06;13.80;1.00
14924;DHT22;7554;43.600;1.480;2022-09-20T03:55:02;13.70;1.00
14924;DHT22;7554;43.600;1.480;2022-09-20T03:58:01;13.70;1.00
14924;DHT22;7554;43.600;1.480;2022-09-20T04:00:47;13.60;1.00
14924;DHT22;7554;43.600;1.480;2022-09-20T04:03:27;13.50;1.00
14924;DHT22;7554;43.600;1.480;2022-09-20T04:06:09;13.50;1.00
14924;DHT22;7554;43.600;1.480;2022-09-20T04:08:52;13.40;1.00
14924;DHT22;7554;43.600;1.480;2022-09-20T04:11:27;13.40;1.00
14924;DHT22;7554;43.600;1.480;2022-09-20T04:14:07;13.40;1.00
14924;DHT22;7554;43.600;1.480;2022-09-20T04:16:42;13.40;1.00
14924;DHT22;7554;43.600;1.480;2022-09-20T04:19:16;13.40;1.00
14924;DHT22;7554;43.600;1.480;2022-09-20T04:21:50;13.30;1.00
14924;DHT22;7554;43.600;1.480;2022-09-20T04:24:24;13.30;1.00
14924;DHT22;7554;43.600;1.480;2022-09-20T04:27:00;13.20;1.00
14924;DHT22;7554;43.600;1.480;2022-09-20T04:29:35;13.20;1.00
14924;DHT22;7554;43.600;1.480;2022-09-20T04:32:12;13.20;1.00
14924;DHT22;7554;43.600;1.480;2022-09-20T04:34:45;13.10;1.00
14924;DHT22;7554;43.600;1.480;2022-09-20T04:37:32;13.10;1.00
14924;DHT22;7554;43.600;1.480;2022-09-20T04:40:12;13.10;1.00
14924;DHT22;7554;43.600;1.480;2022-09-20T04:52:37;13.00;1.00
14924;DHT22;7554;43.600;1.480;2022-09-20T04:58:43;12.90;1.00
14924;DHT22;7554;43.600;1.480;2022-09-20T05:05:12;12.90;1.00
14924;DHT22;7554;43.600;1.480;2022-09-20T05:08:00;12.90;1.00
14924;DHT22;7554;43.600;1.480;2022-09-20T05:11:04;12.80;1.00
14924;DHT22;7554;43.600;1.480;2022-09-20T05:13:55;12.80;1.00
14924;DHT22;7554;43.600;1.480;2022-09-20T05:16:31;12.80;1.00
14924;DHT22;7554;43.600;1.480;2022-09-20T05:19:20;12.80;1.00
14924;DHT22;7554;43.600;1.480;2022-09-20T05:22:03;12.70;1.00
14924;DHT22;7554;43.600;1.480;2022-09-20T05:24:52;12.80;1.00
14924;DHT22;7554;43.600;1.480;2022-09-20T05:27:36;12.80;1.00
14924;DHT22;7554;43.600;1.480;2022-09-20T05:30:24;12.70;1.00
14924;DHT22;7554;43.600;1.480;2022-09-20T05:33:03;12.60;1.00
14924;DHT22;7554;43.600;1.480;2022-09-20T05:35:42;12.60;1.00
14924;DHT22;7554;43.600;1.480;2022-09-20T05:38:18;12.70;1.00
14924;DHT22;7554;43.600;1.480;2022-09-20T05:41:03;12.70;1.00
14924;DHT22;7554;43.600;1.480;2022-09-20T05:43:34;12.80;1.00
14924;DHT22;7554;43.600;1.480;2022-09-20T05:46:11;13.00;1.00
14924;DHT22;7554;43.600;1.480;2022-09-20T05:48:52;13.60;1.00
14924;DHT22;7554;43.600;1.480;2022-09-20T05:51:32;14.30;1.00
14924;DHT22;7554;43.600;1.480;2022-09-20T05:57:13;15.80;1.00
14924;DHT22;7554;43.600;1.480;2022-09-20T05:59:53;16.50;1.00
14924;DHT22;7554;43.600;1.480;2022-09-20T06:02:34;17.10;1.00
14924;DHT22;7554;43.600;1.480;2022-09-20T06:05:10;17.80;1.00
14924;DHT22;7554;43.600;1.480;2022-09-20T06:08:17;18.60;1.00
14924;DHT22;7554;43.600;1.480;2022-09-20T06:11:11;19.10;1.00
14924;DHT22;7554;43.600;1.480;2022-09-20T06:14:06;19.70;1.00
14924;DHT22;7554;43.600;1.480;2022-09-20T06:16:45;20.40;1.00
14924;DHT22;7554;43.600;1.480;2022-09-20T06:19:19;21.00;1.00
14924;DHT22;7554;43.600;1.480;2022-09-20T06:21:52;21.20;1.00
14924;DHT22;7554;43.600;1.480;2022-09-20T06:24:34;21.70;1.00
14924;DHT22;7554;43.600;1.480;2022-09-20T06:27:09;22.40;1.00
14924;DHT22;7554;43.600;1.480;2022-09-20T06:29:40;22.80;1.00
14924;DHT22;7554;43.600;1.480;2022-09-20T06:32:12;23.10;1.00
14924;DHT22;7554;43.600;1.480;2022-09-20T06:34:42;23.50;1.00
14924;DHT22;7554;43.600;1.480;2022-09-20T06:37:34;24.00;1.00
14924;DHT22;7554;43.600;1.480;2022-09-20T06:40:32;24.70;1.00
14924;DHT22;7554;43.600;1.480;2022-09-20T06:43:21;25.20;1.00
14924;DHT22;7554;43.600;1.480;2022-09-20T06:45:48;25.40;1.00
14924;DHT22;7554;43.600;1.480;2022-09-20T06:48:16;25.80;1.00
14924;DHT22;7554;43.600;1.480;2022-09-20T06:50:44;26.00;1.00
14924;DHT22;7554;43.600;1.480;2022-09-20T06:53:15;26.60;1.00
14924;DHT22;7554;43.600;1.480;2022-09-20T06:55:44;26.90;1.00
14924;DHT22;7554;43.600;1.480;2022-09-20T06:58:12;27.10;1.00
14924;DHT22;7554;43.600;1.480;2022-09-20T07:00:41;27.30;1.00
14924;DHT22;7554;43.600;1.480;2022-09-20T07:03:08;27.80;1.00
14924;DHT22;7554;43.600;1.480;2022-09-20T07:05:37;28.40;1.00
14924;DHT22;7554;43.600;1.480;2022-09-20T07:08:05;28.30;1.00
14924;DHT22;7554;43.600;1.480;2022-09-20T07:10:32;28.30;1.00
14924;DHT22;7554;43.600;1.480;2022-09-20T07:13:01;28.80;1.00
14924;DHT22;7554;43.600;1.480;2022-09-20T07:15:29;29.30;1.00
14924;DHT22;7554;43.600;1.480;2022-09-20T07:17:58;29.70;1.00
14924;DHT22;7554;43.600;1.480;2022-09-20T07:20:26;29.80;1.00
14924;DHT22;7554;43.600;1.480;2022-09-20T07:22:53;30.00;1.00
14924;DHT22;7554;43.600;1.480;2022-09-20T07:25:21;29.80;1.00
14924;DHT22;7554;43.600;1.480;2022-09-20T07:27:49;30.00;1.00
14924;DHT22;7554;43.600;1.480;2022-09-20T07:30:19;30.30;1.00
14924;DHT22;7554;43.600;1.480;2022-09-20T07:32:46;30.20;1.00
14924;DHT22;7554;43.600;1.480;2022-09-20T07:35:16;30.60;1.00
14924;DHT22;7554;43.600;1.480;2022-09-20T07:37:43;30.60;1.00
14924;DHT22;7554;43.600;1.480;2022-09-20T07:40:11;31.40;1.00
14924;DHT22;7554;43.600;1.480;2022-09-20T07:42:39;31.60;1.00
14924;DHT22;7554;43.600;1.480;2022-09-20T07:45:07;32.10;1.00
14924;DHT22;7554;43.600;1.480;2022-09-20T07:47:37;31.90;1.00
14924;DHT22;7554;43.600;1.480;2022-09-20T07:50:07;31.90;1.00
14924;DHT22;7554;43.600;1.480;2022-09-20T07:52:37;32.40;1.00
14924;DHT22;7554;43.600;1.480;2022-09-20T07:55:05;32.30;1.00
14924;DHT22;7554;43.600;1.480;2022-09-20T07:57:34;32.30;1.00
14924;DHT22;7554;43.600;1.480;2022-09-20T08:00:05;32.80;1.00
14924;DHT22;7554;43.600;1.480;2022-09-20T08:02:32;33.00;1.00
14924;DHT22;7554;43.600;1.480;2022-09-20T08:05:00;33.00;1.00
14924;DHT22;7554;43.600;1.480;2022-09-20T08:07:28;33.30;1.00
14924;DHT22;7554;43.600;1.480;2022-09-20T08:09:57;33.60;1.00
14924;DHT22;7554;43.600;1.480;2022-09-20T08:12:25;34.00;1.00
14924;DHT22;7554;43.600;1.480;2022-09-20T08:14:52;34.10;1.00
14924;DHT22;7554;43.600;1.480;2022-09-20T08:17:20;33.70;1.00
14924;DHT22;7554;43.600;1.480;2022-09-20T08:19:47;33.70;1.00
14924;DHT22;7554;43.600;1.480;2022-09-20T08:22:15;34.10;1.00
14924;DHT22;7554;43.600;1.480;2022-09-20T08:24:42;34.30;1.00
14924;DHT22;7554;43.600;1.480;2022-09-20T08:27:11;33.40;1.00
14924;DHT22;7554;43.600;1.480;2022-09-20T08:29:38;33.80;1.00
14924;DHT22;7554;43.600;1.480;2022-09-20T08:32:06;33.90;1.00
14924;DHT22;7554;43.600;1.480;2022-09-20T08:34:34;33.80;1.00
14924;DHT22;7554;43.600;1.480;2022-09-20T08:37:01;33.70;1.00
14924;DHT22;7554;43.600;1.480;2022-09-20T08:39:28;32.90;1.00
14924;DHT22;7554;43.600;1.480;2022-09-20T08:41:59;32.00;1.00
14924;DHT22;7554;43.600;1.480;2022-09-20T08:44:37;30.90;1.00
14924;DHT22;7554;43.600;1.480;2022-09-20T08:47:24;29.10;1.00
14924;DHT22;7554;43.600;1.480;2022-09-20T08:49:53;26.10;1.00
14924;DHT22;7554;43.600;1.480;2022-09-20T08:52:26;25.10;1.00
14924;DHT22;7554;43.600;1.480;2022-09-20T08:54:55;24.40;1.00
14924;DHT22;7554;43.600;1.480;2022-09-20T08:57:25;24.20;1.00
14924;DHT22;7554;43.600;1.480;2022-09-20T08:59:57;24.10;1.00
14924;DHT22;7554;43.600;1.480;2022-09-20T09:02:24;24.00;1.00
14924;DHT22;7554;43.600;1.480;2022-09-20T09:04:52;24.00;1.00
14924;DHT22;7554;43.600;1.480;2022-09-20T09:07:20;23.90;1.00
14924;DHT22;7554;43.600;1.480;2022-09-20T09:09:51;24.00;1.00
14924;DHT22;7554;43.600;1.480;2022-09-20T09:12:21;23.70;1.00
14924;DHT22;7554;43.600;1.480;2022-09-20T09:14:51;23.90;1.00
14924;DHT22;7554;43.600;1.480;2022-09-20T09:17:23;24.00;1.00
14924;DHT22;7554;43.600;1.480;2022-09-20T09:19:53;24.20;1.00
14924;DHT22;7554;43.600;1.480;2022-09-20T09:22:23;24.10;1.00
14924;DHT22;7554;43.600;1.480;2022-09-20T09:25:22;24.00;1.00
14924;DHT22;7554;43.600;1.480;2022-09-20T09:27:53;23.90;1.00
14924;DHT22;7554;43.600;1.480;2022-09-20T09:30:22;23.70;1.00
14924;DHT22;7554;43.600;1.480;2022-09-20T09:32:54;23.70;1.00
14924;DHT22;7554;43.600;1.480;2022-09-20T09:35:40;23.70;1.00
14924;DHT22;7554;43.600;1.480;2022-09-20T09:38:17;23.60;1.00
14924;DHT22;7554;43.600;1.480;2022-09-20T09:40:51;23.80;1.00
14924;DHT22;7554;43.600;1.480;2022-09-20T09:43:21;23.90;1.00
14924;DHT22;7554;43.600;1.480;2022-09-20T09:45:52;23.80;1.00
14924;DHT22;7554;43.600;1.480;2022-09-20T09:48:24;23.60;1.00
14924;DHT22;7554;43.600;1.480;2022-09-20T09:51:07;23.60;1.00
14924;DHT22;7554;43.600;1.480;2022-09-20T09:53:35;23.40;1.00
14924;DHT22;7554;43.600;1.480;2022-09-20T09:56:19;23.00;1.00
14924;DHT22;7554;43.600;1.480;2022-09-20T10:02:00;23.20;1.00
14924;DHT22;7554;43.600;1.480;2022-09-20T10:04:36;23.20;1.00
14924;DHT22;7554;43.600;1.480;2022-09-20T10:07:11;23.30;1.00
14924;DHT22;7554;43.600;1.480;2022-09-20T10:09:54;23.40;1.00
14924;DHT22;7554;43.600;1.480;2022-09-20T10:12:37;23.40;1.00
14924;DHT22;7554;43.600;1.480;2022-09-20T10:15:18;23.20;1.00
14924;DHT22;7554;43.600;1.480;2022-09-20T10:17:52;23.20;1.00
14924;DHT22;7554;43.600;1.480;2022-09-20T10:20:41;23.10;1.00
14924;DHT22;7554;43.600;1.480;2022-09-20T10:23:27;23.30;1.00
14924;DHT22;7554;43.600;1.480;2022-09-20T10:26:08;23.40;1.00
14924;DHT22;7554;43.600;1.480;2022-09-20T10:28:48;23.30;1.00
14924;DHT22;7554;43.600;1.480;2022-09-20T10:31:31;23.40;1.00
14924;DHT22;7554;43.600;1.480;2022-09-20T10:34:20;23.50;1.00
14924;DHT22;7554;43.600;1.480;2022-09-20T10:36:54;23.40;1.00
14924;DHT22;7554;43.600;1.480;2022-09-20T10:39:26;23.50;1.00
14924;DHT22;7554;43.600;1.480;2022-09-20T10:42:03;23.50;1.00
14924;DHT22;7554;43.600;1.480;2022-09-20T10:45:00;23.30;1.00
14924;DHT22;7554;43.600;1.480;2022-09-20T10:47:34;23.30;1.00
14924;DHT22;7554;43.600;1.480;2022-09-20T10:50:12;23.20;1.00
14924;DHT22;7554;43.600;1.480;2022-09-20T10:52:55;23.30;1.00
14924;DHT22;7554;43.600;1.480;2022-09-20T10:55:33;23.20;1.00
14924;DHT22;7554;43.600;1.480;2022-09-20T10:58:30;23.30;1.00
14924;DHT22;7554;43.600;1.480;2022-09-20T11:01:07;23.30;1.00
14924;DHT22;7554;43.600;1.480;2022-09-20T11:03:59;23.30;1.00
14924;DHT22;7554;43.600;1.480;2022-09-20T11:06:43;23.30;1.00
14924;DHT22;7554;43.600;1.480;2022-09-20T11:09:18;23.40;1.00
14924;DHT22;7554;43.600;1.480;2022-09-20T11:11:49;23.40;1.00
14924;DHT22;7554;43.600;1.480;2022-09-20T11:14:19;23.50;1.00
14924;DHT22;7554;43.600;1.480;2022-09-20T11:16:51;23.40;1.00
14924;DHT22;7554;43.600;1.480;2022-09-20T11:19:25;23.30;1.00
14924;DHT22;7554;43.600;1.480;2022-09-20T11:22:01;23.40;1.00
14924;DHT22;7554;43.600;1.480;2022-09-20T11:24:37;23.40;1.00
14924;DHT22;7554;43.600;1.480;2022-09-20T11:27:12;23.50;1.00
14924;DHT22;7554;43.600;1.480;2022-09-20T11:29:44;23.50;1.00
14924;DHT22;7554;43.600;1.480;2022-09-20T11:32:18;23.60;1.00
14924;DHT22;7554;43.600;1.480;2022-09-20T11:34:50;23.50;1.00
14924;DHT22;7554;43.600;1.480;2022-09-20T11:37:19;23.50;1.00
14924;DHT22;7554;43.600;1.480;2022-09-20T11:39:52;23.50;1.00
14924;DHT22;7554;43.600;1.480;2022-09-20T11:42:22;23.50;1.00
14924;DHT22;7554;43.600;1.480;2022-09-20T11:44:53;23.50;1.00
14924;DHT22;7554;43.600;1.480;2022-09-20T11:47:23;23.50;1.00
14924;DHT22;7554;43.600;1.480;2022-09-20T11:50:17;23.60;1.00
14924;DHT22;7554;43.600;1.480;2022-09-20T11:53:08;23.60;1.00
14924;DHT22;7554;43.600;1.480;2022-09-20T11:55:42;23.60;1.00
14924;DHT22;7554;43.600;1.480;2022-09-20T11:58:14;23.50;1.00
14924;DHT22;7554;43.600;1.480;2022-09-20T12:00:48;23.60;1.00
14924;DHT22;7554;43.600;1.480;2022-09-20T12:03:31;23.60;1.00
14924;DHT22;7554;43.600;1.480;2022-09-20T12:06:02;23.60;1.00
14924;DHT22;7554;43.600;1.480;2022-09-20T12:08:32;23.60;1.00
14924;DHT22;7554;43.600;1.480;2022-09-20T12:11:04;23.60;1.00
14924;DHT22;7554;43.600;1.480;2022-09-20T12:13:34;23.60;1.00
14924;DHT22;7554;43.600;1.480;2022-09-20T12:16:05;23.60;1.00
14924;DHT22;7554;43.600;1.480;2022-09-20T12:18:45;23.60;1.00
14924;DHT22;7554;43.600;1.480;2022-09-20T12:21:14;23.80;1.00
14924;DHT22;7554;43.600;1.480;2022-09-20T12:23:58;23.70;1.00
14924;DHT22;7554;43.600;1.480;2022-09-20T12:26:45;23.70;1.00
14924;DHT22;7554;43.600;1.480;2022-09-20T12:39:02;23.70;1.00
14924;DHT22;7554;43.600;1.480;2022-09-20T12:41:47;23.70;1.00
14924;DHT22;7554;43.600;1.480;2022-09-20T12:44:36;23.70;1.00
14924;DHT22;7554;43.600;1.480;2022-09-20T12:47:06;23.70;1.00
14924;DHT22;7554;43.600;1.480;2022-09-20T12:49:48;23.60;1.00
14924;DHT22;7554;43.600;1.480;2022-09-20T12:52:39;23.70;1.00
14924;DHT22;7554;43.600;1.480;2022-09-20T12:55:40;23.90;1.00
14924;DHT22;7554;43.600;1.480;2022-09-20T12:58:34;23.80;1.00
14924;DHT22;7554;43.600;1.480;2022-09-20T13:01:32;23.80;1.00
14924;DHT22;7554;43.600;1.480;2022-09-20T13:10:31;23.80;1.00
14924;DHT22;7554;43.600;1.480;2022-09-20T13:13:12;23.70;1.00
14924;DHT22;7554;43.600;1.480;2022-09-20T13:15:48;23.80;1.00
14924;DHT22;7554;43.600;1.480;2022-09-20T13:18:17;24.00;1.00
14924;DHT22;7554;43.600;1.480;2022-09-20T13:20:45;24.00;1.00
14924;DHT22;7554;43.600;1.480;2022-09-20T13:23:19;24.00;1.00
14924;DHT22;7554;43.600;1.480;2022-09-20T13:25:48;23.90;1.00
14924;DHT22;7554;43.600;1.480;2022-09-20T13:28:31;23.80;1.00
14924;DHT22;7554;43.600;1.480;2022-09-20T13:31:22;23.80;1.00
14924;DHT22;7554;43.600;1.480;2022-09-20T13:33:50;23.80;1.00
14924;DHT22;7554;43.600;1.480;2022-09-20T13:36:24;23.80;1.00
14924;DHT22;7554;43.600;1.480;2022-09-20T13:38:54;23.80;1.00
14924;DHT22;7554;43.600;1.480;2022-09-20T13:41:22;23.80;1.00
14924;DHT22;7554;43.600;1.480;2022-09-20T13:43:50;23.80;1.00
14924;DHT22;7554;43.600;1.480;2022-09-20T13:46:23;23.80;1.00
14924;DHT22;7554;43.600;1.480;2022-09-20T13:49:11;23.80;1.00
14924;DHT22;7554;43.600;1.480;2022-09-20T13:51:38;23.90;1.00
14924;DHT22;7554;43.600;1.480;2022-09-20T13:54:17;23.80;1.00
14924;DHT22;7554;43.600;1.480;2022-09-20T13:56:47;23.80;1.00
14924;DHT22;7554;43.600;1.480;2022-09-20T13:59:15;23.80;1.00
14924;DHT22;7554;43.600;1.480;2022-09-20T14:01:48;23.80;1.00
14924;DHT22;7554;43.600;1.480;2022-09-20T14:04:19;23.80;1.00
14924;DHT22;7554;43.600;1.480;2022-09-20T14:06:48;23.80;1.00
14924;DHT22;7554;43.600;1.480;2022-09-20T14:09:23;23.90;1.00
14924;DHT22;7554;43.600;1.480;2022-09-20T14:11:52;23.80;1.00
14924;DHT22;7554;43.600;1.480;2022-09-20T14:14:20;23.80;1.00
14924;DHT22;7554;43.600;1.480;2022-09-20T14:16:52;23.80;1.00
14924;DHT22;7554;43.600;1.480;2022-09-20T14:19:24;23.80;1.00
14924;DHT22;7554;43.600;1.480;2022-09-20T14:21:55;23.80;1.00
14924;DHT22;7554;43.600;1.480;2022-09-20T14:24:28;23.80;1.00
14924;DHT22;7554;43.600;1.480;2022-09-20T14:27:05;23.80;1.00
14924;DHT22;7554;43.600;1.480;2022-09-20T14:29:39;23.80;1.00
14924;DHT22;7554;43.600;1.480;2022-09-20T14:32:17;23.70;1.00
14924;DHT22;7554;43.600;1.480;2022-09-20T14:34:51;23.70;1.00
14924;DHT22;7554;43.600;1.480;2022-09-20T14:37:27;23.80;1.00
14924;DHT22;7554;43.600;1.480;2022-09-20T14:39:57;23.70;1.00
14924;DHT22;7554;43.600;1.480;2022-09-20T14:42:29;23.80;1.00
14924;DHT22;7554;43.600;1.480;2022-09-20T14:44:57;23.80;1.00
14924;DHT22;7554;43.600;1.480;2022-09-20T14:47:28;23.70;1.00
14924;DHT22;7554;43.600;1.480;2022-09-20T14:50:01;23.70;1.00
14924;DHT22;7554;43.600;1.480;2022-09-20T14:52:36;23.70;1.00
14924;DHT22;7554;43.600;1.480;2022-09-20T14:55:18;23.70;1.00
14924;DHT22;7554;43.600;1.480;2022-09-20T14:57:48;23.70;1.00
14924;DHT22;7554;43.600;1.480;2022-09-20T15:00:16;23.70;1.00
14924;DHT22;7554;43.600;1.480;2022-09-20T15:02:46;23.70;1.00
14924;DHT22;7554;43.600;1.480;2022-09-20T15:05:20;23.70;1.00
14924;DHT22;7554;43.600;1.480;2022-09-20T15:07:51;23.70;1.00
14924;DHT22;7554;43.600;1.480;2022-09-20T15:10:19;23.60;1.00
14924;DHT22;7554;43.600;1.480;2022-09-20T15:12:47;23.60;1.00
14924;DHT22;7554;43.600;1.480;2022-09-20T15:15:15;23.50;1.00
14924;DHT22;7554;43.600;1.480;2022-09-20T15:17:46;23.60;1.00
14924;DHT22;7554;43.600;1.480;2022-09-20T15:20:19;23.60;1.00
14924;DHT22;7554;43.600;1.480;2022-09-20T15:22:47;23.60;1.00
14924;DHT22;7554;43.600;1.480;2022-09-20T15:25:16;23.50;1.00
14924;DHT22;7554;43.600;1.480;2022-09-20T15:27:44;23.60;1.00
14924;DHT22;7554;43.600;1.480;2022-09-20T15:30:14;23.50;1.00
14924;DHT22;7554;43.600;1.480;2022-09-20T15:32:42;23.40;1.00
14924;DHT22;7554;43.600;1.480;2022-09-20T15:35:12;23.40;1.00
14924;DHT22;7554;43.600;1.480;2022-09-20T15:37:39;23.40;1.00
14924;DHT22;7554;43.600;1.480;2022-09-20T15:40:08;23.40;1.00
14924;DHT22;7554;43.600;1.480;2022-09-20T15:42:35;23.40;1.00
14924;DHT22;7554;43.600;1.480;2022-09-20T15:45:08;23.40;1.00
14924;DHT22;7554;43.600;1.480;2022-09-20T15:47:36;23.30;1.00
14924;DHT22;7554;43.600;1.480;2022-09-20T15:50:04;23.30;1.00
14924;DHT22;7554;43.600;1.480;2022-09-20T15:52:36;23.30;1.00
14924;DHT22;7554;43.600;1.480;2022-09-20T15:55:05;23.30;1.00
14924;DHT22;7554;43.600;1.480;2022-09-20T15:57:33;23.20;1.00
14924;DHT22;7554;43.600;1.480;2022-09-20T16:00:01;23.20;1.00
14924;DHT22;7554;43.600;1.480;2022-09-20T16:02:29;23.20;1.00
14924;DHT22;7554;43.600;1.480;2022-09-20T16:04:56;23.20;1.00
14924;DHT22;7554;43.600;1.480;2022-09-20T16:07:24;23.10;1.00
14924;DHT22;7554;43.600;1.480;2022-09-20T16:09:54;23.00;1.00
14924;DHT22;7554;43.600;1.480;2022-09-20T16:12:23;23.00;1.00
14924;DHT22;7554;43.600;1.480;2022-09-20T16:14:50;23.00;1.00
14924;DHT22;7554;43.600;1.480;2022-09-20T16:17:18;23.00;1.00
14924;DHT22;7554;43.600;1.480;2022-09-20T16:20:06;23.00;1.00
14924;DHT22;7554;43.600;1.480;2022-09-20T16:22:32;23.00;1.00
14924;DHT22;7554;43.600;1.480;2022-09-20T16:25:01;22.90;1.00
14924;DHT22;7554;43.600;1.480;2022-09-20T16:27:30;22.90;1.00
14924;DHT22;7554;43.600;1.480;2022-09-20T16:29:59;22.90;1.00
14924;DHT22;7554;43.600;1.480;2022-09-20T16:32:26;22.80;1.00
14924;DHT22;7554;43.600;1.480;2022-09-20T16:34:54;22.80;1.00
14924;DHT22;7554;43.600;1.480;2022-09-20T16:37:23;22.80;1.00
14924;DHT22;7554;43.600;1.480;2022-09-20T16:39:51;22.70;1.00
14924;DHT22;7554;43.600;1.480;2022-09-20T16:42:20;22.70;1.00
14924;DHT22;7554;43.600;1.480;2022-09-20T16:44:48;22.70;1.00
14924;DHT22;7554;43.600;1.480;2022-09-20T16:47:15;22.60;1.00
14924;DHT22;7554;43.600;1.480;2022-09-20T16:49:47;22.60;1.00
14924;DHT22;7554;43.600;1.480;2022-09-20T16:52:16;22.60;1.00
14924;DHT22;7554;43.600;1.480;2022-09-20T16:54:43;22.60;1.00
14924;DHT22;7554;43.600;1.480;2022-09-20T16:57:11;22.50;1.00
14924;DHT22;7554;43.600;1.480;2022-09-20T16:59:41;22.50;1.00
14924;DHT22;7554;43.600;1.480;2022-09-20T17:02:11;22.30;1.00
14924;DHT22;7554;43.600;1.480;2022-09-20T17:04:38;22.30;1.00
14924;DHT22;7554;43.600;1.480;2022-09-20T17:07:08;22.30;1.00
14924;DHT22;7554;43.600;1.480;2022-09-20T17:09:35;22.20;1.00
14924;DHT22;7554;43.600;1.480;2022-09-20T17:12:03;22.20;1.00
14924;DHT22;7554;43.600;1.480;2022-09-20T17:14:31;22.10;1.00
14924;DHT22;7554;43.600;1.480;2022-09-20T17:17:00;22.10;1.00
14924;DHT22;7554;43.600;1.480;2022-09-20T17:19:27;22.10;1.00
14924;DHT22;7554;43.600;1.480;2022-09-20T17:21:54;22.10;1.00
14924;DHT22;7554;43.600;1.480;2022-09-20T17:24:22;22.00;1.00
14924;DHT22;7554;43.600;1.480;2022-09-20T17:26:50;22.10;1.00
14924;DHT22;7554;43.600;1.480;2022-09-20T17:29:19;22.00;1.00
14924;DHT22;7554;43.600;1.480;2022-09-20T17:31:48;21.90;1.00
14924;DHT22;7554;43.600;1.480;2022-09-20T17:34:17;21.90;1.00
14924;DHT22;7554;43.600;1.480;2022-09-20T17:36:46;21.90;1.00
14924;DHT22;7554;43.600;1.480;2022-09-20T17:39:15;21.70;1.00
14924;DHT22;7554;43.600;1.480;2022-09-20T17:41:44;21.60;1.00